Time;durP1;ratioP1;P1;durP2;ratioP2;P2;SDS_P1;SDS_P2;PMS_P1;PMS_P2;Temp;Humidity;BMP_temperature;BMP_pressure;BME280_temperature;BME280_humidity;BME280_pressure;Samples;Min_cycle;Max_cycle;Signal;HPM_P1;HPM_P2
2021/10/02 00:44:38;;;;;;;5.00;3.60;;;12.60;78.80;;;11.37;82.73;96091.28;5015124;28;20037;-65
2021/10/02 00:45:07;;;;;;;5.00;3.42;;;12.60;78.80;;;11.34;82.24;96099.56;4986556;28;20125;-64
2021/10/02 00:47:34;;;;;;;5.45;3.47;;;12.60;78.90;;;11.32;82.46;96102.38;4977290;28;20026;-64
2021/10/02 00:50:00;;;;;;;5.60;3.65;;;12.60;78.90;;;11.31;82.14;96097.28;4990414;28;20503;-65
2021/10/02 00:52:26;;;;;;;6.32;3.30;;;12.60;78.90;;;11.32;83.41;96106.84;4976720;28;20145;-64
2021/10/02 00:54:51;;;;;;;5.80;3.75;;;12.60;78.80;;;11.28;82.76;96095.03;4992706;28;20060;-65
2021/10/02 00:57:17;;;;;;;6.57;3.95;;;12.60;78.90;;;11.26;82.30;96091.78;5003548;28;20113;-64
2021/10/02 00:59:45;;;;;;;7.28;3.72;;;12.60;78.90;;;11.24;82.56;96093.81;4986859;28;20153;-64
2021/10/02 01:02:32;;;;;;;4.40;3.40;;;12.50;79.00;;;11.25;82.48;96096.25;4985423;28;20045;-64
2021/10/02 01:04:57;;;;;;;4.30;3.40;;;12.60;78.80;;;11.23;83.34;96095.63;5030399;28;20111;-64
2021/10/02 01:07:58;;;;;;;4.65;3.80;;;12.50;78.80;;;11.25;83.42;96092.81;5030899;28;20057;-65
2021/10/02 01:10:38;;;;;;;6.33;3.50;;;12.50;78.90;;;11.23;83.06;96093.00;4974860;28;20575;-64
2021/10/02 01:13:18;;;;;;;4.83;3.67;;;12.50;78.90;;;11.20;83.92;96088.13;4959144;28;20352;-65
2021/10/02 01:16:05;;;;;;;4.80;3.72;;;12.50;79.00;;;11.19;83.57;96083.03;5003412;28;20046;-65
2021/10/02 01:18:54;;;;;;;4.72;3.75;;;12.50;79.00;;;11.18;84.52;96078.78;5006008;28;20091;-64
2021/10/02 01:21:57;;;;;;;5.88;3.90;;;12.50;79.10;;;11.18;84.22;96082.25;4958393;28;20042;-65
2021/10/02 01:24:56;;;;;;;4.80;4.07;;;12.50;79.20;;;11.16;83.86;96075.53;4977165;28;20077;-64
2021/10/02 01:27:47;;;;;;;5.82;4.30;;;12.50;79.50;;;11.17;84.15;96082.44;4998619;28;20033;-65
2021/10/02 01:33:16;;;;;;;5.88;4.35;;;12.50;79.40;;;11.12;84.15;96076.94;4959997;28;20037;-65
2021/10/02 01:36:06;;;;;;;8.38;4.60;;;12.40;79.80;;;11.12;83.95;96079.56;4947267;28;20038;-65
2021/10/02 01:49:55;;;;;;;6.75;4.72;;;12.50;80.00;;;11.13;85.03;96076.75;4973319;28;20077;-65
2021/10/02 01:52:34;;;;;;;5.65;4.28;;;12.50;80.30;;;11.17;85.05;96082.44;4976104;28;20018;-65
2021/10/02 01:54:59;;;;;;;5.00;4.07;;;12.50;80.20;;;11.15;84.65;96079.19;4977933;28;20537;-65
2021/10/02 01:57:34;;;;;;;5.97;4.07;;;12.50;79.80;;;11.17;85.86;96082.44;4976840;28;20033;-64
2021/10/02 02:00:08;;;;;;;5.88;4.35;;;12.60;79.80;;;11.17;85.74;96072.72;4976651;28;20029;-65
2021/10/02 02:02:35;;;;;;;5.72;4.28;;;12.60;79.70;;;11.17;84.53;96077.16;4975567;28;20392;-65
2021/10/02 02:05:04;;;;;;;5.03;4.03;;;12.60;79.60;;;11.17;84.42;96077.16;4960839;28;20037;-65
2021/10/02 02:07:29;;;;;;;5.78;4.20;;;12.60;79.60;;;11.17;84.93;96077.16;4993048;28;20033;-64
2021/10/02 02:09:56;;;;;;;5.47;4.20;;;12.60;79.70;;;11.19;84.29;96077.78;4972712;28;20589;-65
2021/10/02 02:12:22;;;;;;;6.05;4.65;;;12.60;79.80;;;11.18;84.64;96078.78;4972796;28;20030;-64
2021/10/02 02:14:49;;;;;;;5.80;4.10;;;12.60;79.90;;;11.18;84.79;96065.63;4988580;28;20048;-64
2021/10/02 02:17:15;;;;;;;6.82;4.38;;;12.50;80.00;;;11.17;85.11;96071.91;4975731;28;20034;-65
2021/10/02 02:19:41;;;;;;;5.80;4.50;;;12.60;80.10;;;11.19;85.20;96075.16;4956251;28;20045;-65
2021/10/02 02:22:07;;;;;;;6.10;5.05;;;12.60;80.10;;;11.19;85.60;96075.16;4940374;28;20053;-65
2021/10/02 02:24:33;;;;;;;8.00;4.80;;;12.60;80.60;;;11.19;85.40;96064.63;4942808;28;20511;-65
2021/10/02 02:27:00;;;;;;;5.85;4.90;;;12.60;80.20;;;11.19;85.79;96067.25;4960011;28;20062;-64
2021/10/02 02:29:27;;;;;;;5.55;4.78;;;12.60;80.30;;;11.19;84.83;96069.88;4975374;28;20125;-65
2021/10/02 02:31:53;;;;;;;6.75;4.93;;;12.60;80.20;;;11.19;85.50;96064.63;4976146;28;20113;-65
2021/10/02 02:34:19;;;;;;;4.97;4.40;;;12.60;80.20;;;11.19;86.11;96069.88;4974972;28;20126;-65
2021/10/02 02:36:44;;;;;;;5.90;4.88;;;12.60;80.20;;;11.19;85.66;96069.88;4976297;28;20033;-65
2021/10/02 02:39:10;;;;;;;5.97;4.55;;;12.60;80.10;;;11.19;85.44;96059.34;4959160;28;20080;-65
2021/10/02 02:41:36;;;;;;;6.25;4.72;;;12.60;80.30;;;11.19;85.74;96072.53;4973822;28;20034;-65
2021/10/02 02:44:02;;;;;;;7.05;4.65;;;12.60;80.40;;;11.20;85.11;96071.50;4960630;28;20113;-64
2021/10/02 02:46:32;;;;;;;7.57;5.30;;;12.60;80.30;;;11.20;86.13;96071.50;4958584;28;20080;-65
2021/10/02 02:49:02;;;;;;;5.13;4.63;;;12.60;80.40;;;11.21;85.68;96059.97;4959295;28;20088;-65
2021/10/02 02:52:11;;;;;;;5.55;4.82;;;12.60;80.30;;;11.22;87.27;96061.59;5002994;28;20042;-65
2021/10/02 02:55:07;;;;;;;6.50;4.70;;;12.60;80.80;;;11.22;87.89;96058.97;4965493;28;20045;-64
2021/10/02 02:57:47;;;;;;;5.85;4.60;;;12.70;81.10;;;11.24;87.65;96062.22;4960952;28;20034;-64
2021/10/02 03:00:20;;;;;;;6.68;5.03;;;12.70;80.90;;;11.26;87.30;96065.47;4991290;28;20029;-64
2021/10/02 03:03:19;;;;;;;6.53;4.32;;;12.70;81.00;;;11.30;88.45;96069.31;4975195;28;20030;-64
2021/10/02 03:05:45;;;;;;;6.75;5.03;;;12.70;81.20;;;11.31;87.00;96069.13;4978889;28;20034;-65
2021/10/02 03:08:16;;;;;;;6.35;4.25;;;12.70;81.60;;;11.32;87.35;96054.19;4956330;28;20170;-65
2021/10/02 03:10:47;;;;;;;6.40;5.32;;;12.70;81.60;;;11.31;87.65;96060.41;4982845;28;20030;-64
2021/10/02 03:13:14;;;;;;;7.03;5.00;;;12.70;81.70;;;11.32;87.45;96054.19;4981423;28;20509;-65
2021/10/02 03:15:41;;;;;;;6.43;5.00;;;12.70;81.90;;;11.31;88.01;96057.78;4963901;28;20573;-64
2021/10/02 03:18:11;;;;;;;6.28;5.03;;;12.70;82.00;;;11.31;87.42;96052.53;4959926;28;20041;-64
2021/10/02 03:20:37;;;;;;;7.78;5.28;;;12.70;82.00;;;11.32;88.14;96059.44;4974848;28;20041;-64
2021/10/02 03:23:03;;;;;;;5.65;4.53;;;12.70;82.20;;;11.32;88.01;96059.44;4989729;28;20026;-65
2021/10/02 03:25:30;;;;;;;5.65;4.70;;;12.70;82.30;;;11.32;88.32;96048.91;4968364;28;20061;-64
2021/10/02 03:27:58;;;;;;;6.78;5.18;;;12.70;82.50;;;11.31;89.15;96055.16;4960295;28;20037;-65
2021/10/02 03:30:24;;;;;;;5.47;4.60;;;12.70;82.60;;;11.33;88.85;96050.53;4985822;28;20026;-65
2021/10/02 03:32:51;;;;;;;5.72;4.88;;;12.70;82.30;;;11.33;88.99;96055.81;4993099;28;20089;-65
2021/10/02 03:35:18;;;;;;;5.53;4.03;;;12.60;83.00;;;11.34;89.39;96052.16;4945477;28;20033;-63
2021/10/02 03:37:44;;;;;;;6.28;4.43;;;12.70;83.20;;;11.35;89.21;96046.69;4994338;28;20113;-66
2021/10/02 03:40:10;;;;;;;15.98;13.93;;;12.60;83.20;;;11.40;89.27;96040.03;4983567;28;20518;-67
2021/10/02 03:42:44;;;;;;;11.38;8.82;;;12.80;83.10;;;11.43;89.96;96043.06;4948332;28;20057;-67
2021/10/02 03:45:10;;;;;;;6.80;5.43;;;12.90;82.90;;;11.45;89.50;96038.44;5010038;28;20066;-66
2021/10/02 03:47:36;;;;;;;4.60;4.10;;;12.90;82.60;;;11.49;88.91;96038.84;4957342;28;20071;-66
2021/10/02 03:50:03;;;;;;;6.35;4.50;;;13.00;82.60;;;11.51;89.36;96042.91;4984663;28;20101;-65
2021/10/02 03:52:29;;;;;;;9.20;8.20;;;13.00;82.10;;;11.54;89.41;96049.59;4946547;28;20057;-66
2021/10/02 03:54:55;;;;;;;7.70;6.03;;;13.00;82.00;;;11.58;89.52;96051.66;4961957;28;20042;-65
2021/10/02 03:57:20;;;;;;;14.63;10.70;;;13.10;82.00;;;11.60;89.07;96043.56;4978772;28;20042;-65
2021/10/02 03:59:46;;;;;;;12.40;10.30;;;13.10;81.90;;;11.65;89.28;96044.59;4994277;28;20533;-66
2021/10/02 04:02:12;;;;;;;20.35;17.05;;;13.10;81.80;;;11.69;88.99;96044.19;4973173;28;20463;-65
2021/10/02 04:04:37;;;;;;;21.30;19.00;;;13.20;81.70;;;11.70;89.01;96038.72;4977149;28;20502;-65
2021/10/02 04:07:03;;;;;;;13.15;10.05;;;13.20;81.70;;;11.73;88.61;96034.88;4935492;28;20058;-66
2021/10/02 04:09:29;;;;;;;6.60;5.43;;;13.20;81.60;;;11.75;88.49;96038.94;4979934;28;20189;-65
2021/10/02 04:11:55;;;;;;;6.60;4.47;;;13.20;81.60;;;11.74;88.98;96036.50;4966189;28;20037;-66
2021/10/02 04:14:21;;;;;;;4.90;4.30;;;13.20;81.10;;;11.74;88.37;96033.88;4995190;28;20366;-66
2021/10/02 04:16:46;;;;;;;5.13;4.10;;;13.20;81.00;;;11.76;88.23;96035.28;4963388;28;20119;-66
2021/10/02 04:19:12;;;;;;;5.80;4.28;;;13.30;80.80;;;11.77;87.74;96047.50;5010402;28;20026;-66
2021/10/02 04:21:38;;;;;;;5.35;4.45;;;13.20;80.60;;;11.76;87.21;96050.28;4946349;28;20180;-66
2021/10/02 04:24:04;;;;;;;4.68;4.15;;;13.10;80.80;;;11.73;87.71;96050.69;4971815;28;20034;-66
2021/10/02 04:26:30;;;;;;;7.28;4.50;;;13.10;81.00;;;11.72;87.56;96046.44;4984790;28;20042;-66
2021/10/02 04:28:56;;;;;;;5.53;4.38;;;13.10;81.00;;;11.72;88.00;96049.06;4964883;28;20080;-66
2021/10/02 04:31:21;;;;;;;6.40;4.57;;;13.10;81.00;;;11.69;87.74;96047.66;4977690;28;20040;-67
2021/10/02 04:33:47;;;;;;;5.95;4.50;;;13.10;81.00;;;11.68;88.32;96037.31;4958169;28;20088;-70
2021/10/02 04:36:13;;;;;;;6.10;4.82;;;13.10;81.10;;;11.68;87.30;96043.38;4976677;28;20072;-70
2021/10/02 04:38:40;;;;;;;7.32;4.55;;;13.10;80.90;;;11.64;88.08;96048.25;4993773;28;20099;-69
2021/10/02 04:41:06;;;;;;;7.03;4.47;;;13.10;80.60;;;11.61;87.39;96048.63;4967454;28;20037;-68
2021/10/02 04:43:34;;;;;;;6.63;4.90;;;13.10;80.50;;;11.58;87.52;96054.31;4977654;28;20125;-68
2021/10/02 04:46:01;;;;;;;5.55;4.32;;;13.00;80.40;;;11.56;87.42;96051.06;4962899;28;20033;-69
2021/10/02 04:48:27;;;;;;;5.25;4.30;;;13.00;80.60;;;11.53;87.07;96043.50;4945025;28;20041;-69
2021/10/02 04:50:53;;;;;;;5.47;4.10;;;13.00;80.60;;;11.52;87.78;96043.72;4942725;28;20503;-68
2021/10/02 04:53:19;;;;;;;5.38;4.50;;;12.90;80.70;;;11.49;86.83;96039.66;4960075;28;20037;-69
2021/10/02 04:55:44;;;;;;;5.68;4.50;;;12.90;80.70;;;11.47;88.17;96051.41;4993806;28;20026;-68
2021/10/02 04:58:10;;;;;;;4.63;4.10;;;12.90;80.90;;;11.46;88.07;96041.88;4993865;28;20032;-68
2021/10/02 05:00:36;;;;;;;5.95;4.63;;;12.90;80.80;;;11.45;87.25;96048.97;4961835;28;20415;-69
2021/10/02 05:03:02;;;;;;;5.72;4.68;;;13.00;80.80;;;11.46;87.63;96060.31;4977901;28;20125;-69
2021/10/02 05:05:28;;;;;;;5.97;4.45;;;12.90;80.80;;;11.44;88.00;96052.59;4969111;28;20034;-70
2021/10/02 05:07:53;;;;;;;6.03;4.35;;;12.90;80.80;;;11.43;87.52;96056.25;4975823;28;20470;-69
2021/10/02 05:10:19;;;;;;;5.57;4.55;;;12.90;80.70;;;11.42;87.95;96052.00;4994679;28;20439;-69
2021/10/02 05:12:45;;;;;;;5.43;4.47;;;12.90;80.80;;;11.40;87.46;96054.00;4961516;28;20037;-67
2021/10/02 05:15:11;;;;;;;7.18;5.30;;;12.90;80.80;;;11.41;87.72;96058.25;4977612;28;20026;-69
2021/10/02 05:17:37;;;;;;;6.15;4.50;;;12.90;80.80;;;11.41;87.48;96060.09;4983648;28;20034;-69
2021/10/02 05:20:04;;;;;;;5.10;4.25;;;12.80;81.10;;;11.41;87.95;96058.25;4961430;28;20105;-69
2021/10/02 05:22:30;;;;;;;7.45;4.78;;;12.90;81.00;;;11.43;87.65;96061.50;4973347;28;20522;-68
2021/10/02 05:24:56;;;;;;;5.10;4.40;;;12.90;81.00;;;11.41;87.81;96063.53;4980798;28;20025;-69
2021/10/02 05:27:22;;;;;;;6.53;4.72;;;12.80;81.30;;;11.40;88.11;96064.53;4980398;28;20442;-68
2021/10/02 05:29:48;;;;;;;6.43;4.65;;;12.80;81.40;;;11.40;87.92;96067.19;4980479;28;20218;-69
2021/10/02 05:32:15;;;;;;;6.65;4.20;;;12.80;81.20;;;11.40;87.99;96069.81;4976780;28;20037;-68
2021/10/02 05:34:41;;;;;;;5.20;4.50;;;12.90;81.10;;;11.42;88.18;96074.88;4961264;28;20410;-69
2021/10/02 05:37:07;;;;;;;6.38;4.07;;;12.90;81.00;;;11.42;88.39;96073.06;4960278;28;20045;-69
2021/10/02 05:39:33;;;;;;;4.82;4.28;;;12.90;80.90;;;11.44;87.70;96078.94;4976872;28;20107;-69
2021/10/02 05:41:59;;;;;;;6.88;4.53;;;12.90;80.80;;;11.47;87.73;96083.81;4949348;28;20037;-68
2021/10/02 05:44:25;;;;;;;6.25;4.35;;;12.90;80.70;;;11.46;87.97;96084.81;4976234;28;20046;-69
2021/10/02 05:46:51;;;;;;;5.97;4.18;;;13.00;80.80;;;11.47;88.27;96091.72;4996757;28;20492;-69
2021/10/02 05:49:16;;;;;;;6.22;4.45;;;13.00;80.70;;;11.50;87.67;96087.88;4975926;28;20550;-68
2021/10/02 05:51:42;;;;;;;6.57;5.10;;;13.00;80.80;;;11.50;88.31;96086.06;4986226;28;20060;-69
2021/10/02 05:54:09;;;;;;;6.95;5.00;;;13.10;80.70;;;11.52;87.94;96083.22;4976352;28;20079;-71
2021/10/02 05:56:36;;;;;;;9.35;5.00;;;13.10;80.80;;;11.53;87.59;96083.03;4977132;28;20034;-69
2021/10/02 05:59:03;;;;;;;39.90;33.22;;;13.10;80.70;;;11.55;88.39;96081.03;4976768;28;20028;-68
2021/10/02 06:01:28;;;;;;;27.77;23.77;;;13.10;81.00;;;11.56;88.37;96081.84;4976696;28;20096;-69
2021/10/02 06:03:54;;;;;;;11.60;9.02;;;13.20;80.90;;;11.59;88.18;96084.91;4992549;28;20216;-67
2021/10/02 06:06:20;;;;;;;7.65;6.40;;;13.20;80.80;;;11.65;88.96;96080.66;5007952;28;20116;-68
2021/10/02 06:08:46;;;;;;;9.27;5.32;;;13.30;80.70;;;11.71;89.19;96089.59;4991152;28;20120;-68
2021/10/02 06:11:11;;;;;;;5.40;4.70;;;13.40;80.40;;;11.73;88.68;96074.41;4955145;28;20391;-69
2021/10/02 06:13:37;;;;;;;27.90;19.02;;;13.40;80.10;;;11.79;88.15;96086.84;4944444;28;20095;-68
2021/10/02 06:16:03;;;;;;;61.00;51.30;;;13.50;80.20;;;11.85;88.91;96088.69;4944042;28;20056;-68
2021/10/02 06:18:29;;;;;;;13.85;10.13;;;13.60;80.50;;;11.90;88.33;96095.00;4974984;28;20181;-68
2021/10/02 06:20:55;;;;;;;7.13;5.78;;;13.60;80.60;;;11.96;88.89;96099.47;4994367;28;20061;-68
2021/10/02 06:23:22;;;;;;;9.63;8.52;;;13.60;80.70;;;12.01;88.47;96106.00;4991701;28;20026;-68
2021/10/02 06:25:48;;;;;;;10.43;9.23;;;13.70;80.80;;;12.06;88.70;96103.56;4991841;28;20030;-68
2021/10/02 06:28:15;;;;;;;16.65;14.80;;;13.70;80.60;;;12.10;88.67;96105.63;4989895;28;20041;-67
2021/10/02 06:30:40;;;;;;;10.52;7.60;;;13.70;80.40;;;12.16;88.62;96114.53;4985086;28;20494;-65
2021/10/02 06:33:06;;;;;;;8.35;5.88;;;13.80;80.10;;;12.18;88.30;96110.69;4994509;28;20033;-67
2021/10/02 06:35:33;;;;;;;5.78;4.80;;;13.80;79.90;;;12.23;88.32;96110.94;4994091;28;20136;-67
2021/10/02 06:37:59;;;;;;;6.05;4.45;;;13.90;79.80;;;12.27;88.29;96104.25;5011138;28;20521;-68
2021/10/02 06:40:25;;;;;;;9.32;4.47;;;13.90;79.80;;;12.31;88.57;96106.47;4993711;28;20116;-66
2021/10/02 06:42:52;;;;;;;7.63;4.90;;;14.00;79.80;;;12.36;87.89;96109.34;4990421;28;20509;-66
2021/10/02 06:45:18;;;;;;;7.03;6.15;;;14.00;79.90;;;12.41;87.87;96106.91;4969618;28;20083;-67
2021/10/02 06:47:44;;;;;;;27.40;21.48;;;14.10;79.70;;;12.47;87.91;96100.84;4977742;28;20036;-66
2021/10/02 06:50:10;;;;;;;35.75;27.40;;;14.20;79.40;;;12.51;87.67;96092.31;4964653;28;20116;-66
2021/10/02 06:52:36;;;;;;;15.88;12.95;;;14.30;79.30;;;12.60;87.58;96095.56;4924060;28;20449;-67
2021/10/02 06:55:01;;;;;;;7.63;6.25;;;14.40;79.20;;;12.66;87.90;96092.13;4955250;28;20530;-65
2021/10/02 06:57:27;;;;;;;7.03;5.10;;;14.50;79.10;;;12.74;88.08;96093.78;4939108;28;20117;-65
2021/10/02 06:59:53;;;;;;;5.72;4.88;;;14.60;78.70;;;12.83;87.76;96101.28;4970949;28;20541;-64
2021/10/02 07:02:19;;;;;;;5.97;4.75;;;14.80;77.90;;;12.94;87.72;96102.50;4961265;28;20076;-65
2021/10/02 07:04:48;;;;;;;5.70;4.32;;;14.90;77.90;;;13.04;87.50;96102.09;4958389;28;20029;-64
2021/10/02 07:07:15;;;;;;;6.47;4.93;;;15.10;77.80;;;13.15;87.50;96099.66;4974735;28;20052;-72
2021/10/02 07:09:40;;;;;;;7.53;4.97;;;15.10;77.30;;;13.23;86.47;96096.00;4957094;28;20038;-71
2021/10/02 07:12:06;;;;;;;5.78;4.18;;;15.10;77.00;;;13.32;86.06;96097.41;4990793;28;20080;-70
2021/10/02 07:14:32;;;;;;;5.47;4.47;;;15.30;76.60;;;13.40;85.96;96097.22;4993148;28;20064;-70
2021/10/02 07:16:58;;;;;;;5.78;4.57;;;15.30;76.00;;;13.50;86.12;96104.69;4987124;28;20121;-68
2021/10/02 07:19:24;;;;;;;4.95;4.30;;;15.50;75.50;;;13.60;84.81;96099.00;4964575;28;20483;-69
2021/10/02 07:21:49;;;;;;;6.18;4.38;;;15.60;75.10;;;13.70;84.13;96097.53;4977646;28;20508;-69
2021/10/02 07:24:15;;;;;;;11.27;8.95;;;15.80;73.50;;;13.82;84.41;96092.41;4968098;28;20061;-69
2021/10/02 07:26:42;;;;;;;17.00;14.32;;;15.90;73.50;;;13.94;83.84;96090.72;4971645;28;20043;-69
2021/10/02 07:29:08;;;;;;;7.38;5.22;;;16.10;73.50;;;14.07;84.30;96093.31;4955312;28;20034;-69
2021/10/02 07:31:34;;;;;;;6.65;4.57;;;16.20;73.70;;;14.20;83.87;96091.63;4955316;28;20042;-69
2021/10/02 07:34:00;;;;;;;6.70;4.25;;;16.30;74.00;;;14.31;83.29;96090.97;4958432;28;20111;-72
2021/10/02 07:36:25;;;;;;;5.78;3.67;;;16.40;72.90;;;14.41;81.89;96088.66;4974093;28;20046;-72
2021/10/02 07:38:51;;;;;;;7.78;4.60;;;16.50;70.60;;;14.49;81.09;96083.16;4993800;28;20044;-71
2021/10/02 07:41:17;;;;;;;7.55;4.43;;;16.60;71.60;;;14.57;81.99;96082.88;4961388;28;20138;-69
2021/10/02 07:43:46;;;;;;;5.43;3.92;;;16.60;71.40;;;14.65;81.23;96079.97;4969801;28;20046;-70
2021/10/02 07:46:14;;;;;;;4.95;4.13;;;16.70;70.80;;;14.77;81.00;96081.94;4942876;28;20022;-70
2021/10/02 07:48:40;;;;;;;6.32;4.25;;;16.80;71.20;;;14.87;81.17;96090.19;4990709;28;20026;-68
2021/10/02 07:51:06;;;;;;;7.45;4.50;;;17.00;71.30;;;15.00;81.38;96087.47;4942825;28;20026;-70
2021/10/02 07:53:32;;;;;;;5.68;4.78;;;17.10;70.60;;;15.12;80.91;96082.25;4942720;28;20518;-69
2021/10/02 07:56:01;;;;;;;6.18;4.30;;;17.30;70.70;;;15.24;81.29;96078.69;4942726;28;20434;-69
2021/10/02 07:58:27;;;;;;;6.32;3.80;;;17.50;70.60;;;15.36;80.85;96091.19;4941860;28;20036;-69
2021/10/02 08:00:54;;;;;;;6.55;4.53;;;17.60;70.30;;;15.47;79.57;96087.84;4967729;28;20053;-70
2021/10/02 08:03:20;;;;;;;5.97;4.38;;;17.70;68.30;;;15.69;79.54;96086.41;4983260;28;20031;-70
2021/10/02 08:05:46;;;;;;;8.15;4.50;;;18.50;67.10;;;15.89;79.25;96081.69;4959036;28;20042;-69
2021/10/02 08:08:16;;;;;;;10.32;8.13;;;18.50;66.80;;;16.11;78.85;96090.00;4974285;28;20503;-71
2021/10/02 08:10:43;;;;;;;9.75;7.05;;;18.70;66.30;;;16.41;78.19;96084.69;4958586;28;20033;-70
2021/10/02 08:13:12;;;;;;;7.55;6.15;;;19.50;64.10;;;16.77;77.65;96070.50;4958508;28;20037;-70
2021/10/02 08:15:42;;;;;;;11.40;8.40;;;20.20;61.40;;;17.24;76.32;96077.72;4958884;28;20526;-70
2021/10/02 08:18:09;;;;;;;7.53;4.53;;;20.90;60.40;;;17.66;76.27;96068.56;4990681;28;20121;-70
2021/10/02 08:20:35;;;;;;;6.68;5.85;;;21.20;59.70;;;17.94;75.48;96067.81;4961118;28;20048;-71
2021/10/02 08:23:01;;;;;;;11.05;5.65;;;21.10;59.40;;;18.17;74.26;96060.81;4978167;28;20049;-70
2021/10/02 08:25:26;;;;;;;12.63;9.05;;;21.30;58.00;;;18.29;72.63;96064.22;4977848;28;20109;-71
2021/10/02 08:27:53;;;;;;;7.15;4.45;;;21.00;58.60;;;18.41;72.60;96061.53;4978047;28;20042;-70
2021/10/02 08:30:19;;;;;;;7.88;4.38;;;21.10;57.20;;;18.54;71.85;96055.88;4977194;28;20034;-70
2021/10/02 08:32:45;;;;;;;6.32;4.18;;;21.60;56.70;;;18.83;71.23;96059.34;4977367;28;20462;-69
2021/10/02 08:35:11;;;;;;;7.47;4.20;;;22.10;56.20;;;19.17;71.08;96054.81;4977628;28;20074;-69
2021/10/02 08:37:37;;;;;;;5.40;4.30;;;22.60;54.10;;;19.51;69.69;96059.06;4993916;28;20088;-69
2021/10/02 08:40:06;;;;;;;7.32;4.18;;;22.90;52.50;;;19.85;67.60;96048.31;4973712;28;20030;-69
2021/10/02 08:42:31;;;;;;;9.95;4.45;;;23.20;51.40;;;20.21;67.52;96048.72;4977126;28;20052;-69
2021/10/02 08:44:57;;;;;;;5.03;4.15;;;23.60;50.40;;;20.58;66.36;96043.50;4977674;28;20451;-69
2021/10/02 08:47:23;;;;;;;7.95;4.72;;;24.20;48.80;;;20.95;65.94;96027.53;4961155;28;20137;-69
2021/10/02 08:49:50;;;;;;;11.52;8.93;;;24.50;49.30;;;21.36;65.58;96029.44;4961200;28;20022;-70
2021/10/02 08:52:19;;;;;;;16.38;11.38;;;25.00;48.30;;;21.79;63.52;96030.22;4947567;28;20118;-69
2021/10/02 08:54:46;;;;;;;6.57;5.10;;;25.60;46.10;;;22.18;62.75;96021.78;5009365;28;20080;-69
2021/10/02 08:57:22;;;;;;;8.15;4.63;;;25.80;44.70;;;22.60;58.58;96025.09;4945832;28;20033;-68
2021/10/02 08:59:49;;;;;;;9.40;5.22;;;26.20;44.10;;;23.04;60.84;96027.28;4945598;28;20030;-68
2021/10/02 09:02:15;;;;;;;4.93;4.10;;;27.10;43.30;;;23.50;60.74;96029.88;4944656;28;20026;-69
2021/10/02 09:04:41;;;;;;;5.53;3.97;;;27.70;42.50;;;23.72;59.66;96027.72;4961395;28;20109;-69
2021/10/02 09:07:07;;;;;;;8.82;5.10;;;27.30;42.30;;;23.85;58.40;96028.22;4945852;28;20368;-70
2021/10/02 09:09:33;;;;;;;8.73;5.25;;;27.00;41.60;;;23.85;57.01;96023.66;4992886;28;20041;-69
2021/10/02 09:11:58;;;;;;;8.23;5.70;;;26.70;42.20;;;23.67;57.19;96022.34;4991888;28;20394;-69
2021/10/02 09:14:24;;;;;;;7.65;5.03;;;26.00;43.40;;;23.71;56.24;96019.94;5025002;28;20068;-68
2021/10/02 09:16:50;;;;;;;8.45;5.15;;;26.50;42.90;;;23.93;55.77;96019.56;4993049;28;20113;-68
2021/10/02 09:19:16;;;;;;;6.32;4.63;;;27.40;41.60;;;24.17;55.12;96003.59;4992690;28;20076;-69
2021/10/02 09:22:06;;;;;;;13.02;7.78;;;27.70;40.20;;;24.38;51.87;96003.25;4960996;28;20026;-69
2021/10/02 09:24:35;;;;;;;6.38;4.78;;;28.00;40.40;;;24.64;53.08;96006.56;4976779;28;20191;-69
2021/10/02 09:27:01;;;;;;;7.72;5.03;;;28.80;39.30;;;24.95;53.83;95995.56;4977135;28;20503;-69
2021/10/02 09:29:45;;;;;;;9.18;5.10;;;29.20;37.40;;;25.21;49.47;95994.28;4976465;28;20109;-69
2021/10/02 09:32:13;;;;;;;8.30;4.63;;;30.10;36.70;;;25.53;51.72;96000.94;4993546;28;20029;-68
2021/10/02 09:34:54;;;;;;;9.77;4.80;;;31.10;35.40;;;25.99;50.25;95995.84;4993175;28;20037;-68
2021/10/02 09:37:25;;;;;;;6.82;4.80;;;32.10;33.80;;;26.32;49.05;95982.47;4979011;28;20117;-68
2021/10/02 09:40:06;;;;;;;7.00;4.78;;;32.10;32.30;;;26.64;47.86;95987.94;4991876;28;20034;-67
2021/10/02 09:42:40;;;;;;;7.85;4.75;;;32.60;32.40;;;27.10;46.25;95987.22;4991658;28;20038;-67
2021/10/02 09:45:11;;;;;;;6.72;5.00;;;33.10;30.90;;;27.28;46.79;95986.38;4960537;28;20087;-68
2021/10/02 09:47:38;;;;;;;11.70;7.40;;;32.50;31.70;;;27.28;49.60;95980.97;4959145;28;20428;-68
2021/10/02 09:50:24;;;;;;;7.30;5.13;;;31.30;34.20;;;27.11;45.15;95983.41;4960079;28;20030;-67
2021/10/02 09:52:56;;;;;;;7.30;4.28;;;30.30;35.10;;;26.92;45.85;95982.63;4992159;28;20101;-70
2021/10/02 09:55:27;;;;;;;12.63;9.07;;;30.10;36.10;;;26.79;45.86;95990.41;4976345;28;20044;-68
2021/10/02 09:58:05;;;;;;;7.13;5.80;;;30.10;36.50;;;26.68;46.25;95988.94;4992423;28;20076;-69
2021/10/02 10:00:42;;;;;;;7.45;5.20;;;30.00;36.60;;;26.67;46.46;95987.34;4976353;28;20041;-66
2021/10/02 10:03:16;;;;;;;5.15;4.32;;;30.80;35.80;;;26.96;46.54;95981.78;4987707;28;20038;-67
2021/10/02 10:05:47;;;;;;;6.82;4.60;;;32.50;33.00;;;27.29;45.43;95977.16;4976608;28;20030;-67
2021/10/02 10:08:28;;;;;;;7.88;4.55;;;33.10;31.60;;;27.72;43.13;95976.91;4969196;28;20033;-66
2021/10/02 10:11:08;;;;;;;6.75;4.47;;;34.10;30.10;;;28.21;43.44;95975.34;4999089;28;20506;-65
2021/10/02 10:13:34;;;;;;;9.20;4.68;;;34.50;29.20;;;28.57;45.75;95980.78;4975134;28;20045;-65
2021/10/02 10:15:59;;;;;;;5.30;4.22;;;35.30;27.90;;;28.79;45.10;95971.88;5008446;28;20137;-66
2021/10/02 10:18:30;;;;;;;4.82;4.00;;;34.20;29.40;;;28.80;41.85;95968.06;5006665;28;20522;-66
2021/10/02 10:21:01;;;;;;;6.57;4.45;;;33.50;30.30;;;28.67;41.35;95967.00;4975717;28;20128;-66
2021/10/02 10:23:41;;;;;;;6.13;4.18;;;32.20;31.30;;;28.53;40.76;95964.38;4986009;28;20038;-69
2021/10/02 10:26:15;;;;;;;6.50;4.68;;;32.20;31.80;;;28.51;41.14;95963.06;4981775;28;20105;-68
2021/10/02 10:28:48;;;;;;;5.00;4.30;;;32.50;31.80;;;28.63;40.20;95958.72;4972119;28;20133;-68
2021/10/02 10:31:15;;;;;;;6.05;3.95;;;33.50;29.80;;;28.92;42.13;95963.69;4961403;28;20061;-65
2021/10/02 10:33:47;;;;;;;6.30;3.90;;;34.50;29.50;;;29.11;39.93;95960.78;5007125;28;20566;-65
2021/10/02 10:36:13;;;;;;;7.97;4.68;;;34.40;29.20;;;29.56;41.31;95955.28;4991767;28;20035;-66
2021/10/02 10:38:40;;;;;;;5.57;3.88;;;36.70;25.80;;;30.38;40.56;95940.16;4981453;28;20038;-66
2021/10/02 10:41:06;;;;;;;5.63;3.60;;;38.60;23.20;;;31.18;39.83;95937.84;4996877;28;20041;-67
2021/10/02 10:43:33;;;;;;;5.47;3.75;;;40.30;22.10;;;31.95;38.97;95939.47;4974183;28;20038;-66
2021/10/02 10:46:07;;;;;;;6.22;3.92;;;40.60;22.20;;;32.49;35.53;95931.41;4990959;28;20635;-66
2021/10/02 10:48:33;;;;;;;5.32;3.92;;;40.70;21.30;;;33.07;36.96;95935.06;4975918;28;20124;-67
2021/10/02 10:51:07;;;;;;;6.75;3.72;;;41.80;20.50;;;33.67;32.60;95917.97;4973731;28;20554;-67
2021/10/02 10:53:45;;;;;;;5.05;3.75;;;42.50;19.20;;;34.27;31.91;95921.00;4973505;28;20037;-68
2021/10/02 10:56:11;;;;;;;4.78;3.53;;;42.30;19.70;;;34.22;34.39;95923.97;4974564;28;20080;-67
2021/10/02 10:58:37;;;;;;;7.20;3.50;;;40.90;20.60;;;33.94;33.75;95913.78;5010532;28;20063;-64
2021/10/02 11:01:05;;;;;;;5.53;3.60;;;39.20;22.00;;;33.58;32.65;95917.31;4997697;28;20121;-66
2021/10/02 11:03:42;;;;;;;4.30;3.38;;;37.60;23.10;;;33.12;31.22;95904.84;4947291;28;20437;-67
2021/10/02 11:06:12;;;;;;;5.57;3.08;;;36.90;24.30;;;33.40;30.78;95894.91;4985532;28;20038;-66
2021/10/02 11:09:07;;;;;;;3.50;2.70;;;39.60;21.90;;;34.07;29.51;95888.06;4970943;28;20049;-65
2021/10/02 11:11:51;;;;;;;4.55;3.08;;;41.40;19.60;;;34.62;28.44;95889.25;4990303;28;20033;-66
2021/10/02 11:14:23;;;;;;;3.10;2.70;;;41.70;18.80;;;34.97;28.23;95889.44;5009970;28;20149;-66
2021/10/02 11:17:02;;;;;;;6.05;3.00;;;41.80;18.50;;;35.48;27.44;95881.38;4978326;28;20057;-66
2021/10/02 11:19:38;;;;;;;2.90;2.58;;;43.30;17.50;;;36.08;26.55;95884.72;4986693;28;20037;-66
2021/10/02 11:22:36;;;;;;;5.88;3.00;;;43.70;17.20;;;36.63;25.80;95873.72;4987173;28;20026;-66